Time;durP1;ratioP1;P1;durP2;ratioP2;P2;SDS_P1;SDS_P2;PMS_P1;PMS_P2;Temp;Humidity;BMP_temperature;BMP_pressure;BME280_temperature;BME280_humidity;BME280_pressure;Samples;Min_cycle;Max_cycle;Signal;HPM_P1;HPM_P2
2023/03/07 00:02:58;;;;;;;65.10;27.20;;;;;;;-4.15;100.00;99232.27;219772;1270;108626;-83
2023/03/07 00:07:59;;;;;;;50.40;24.20;;;;;;;-4.11;100.00;99233.45;219190;1266;139649;-82
2023/03/07 00:12:59;;;;;;;60.20;24.30;;;;;;;-4.08;100.00;99236.27;222951;1265;140086;-83
2023/03/07 00:17:59;;;;;;;58.80;26.40;;;;;;;-4.06;100.00;99235.09;220470;1265;139999;-83
2023/03/07 00:23:00;;;;;;;51.40;21.60;;;;;;;-4.05;100.00;99228.86;220228;1265;139881;-83
2023/03/07 00:28:00;;;;;;;65.50;24.30;;;;;;;-4.01;100.00;99224.73;219221;1266;139771;-83
2023/03/07 00:33:00;;;;;;;53.30;23.10;;;;;;;-3.98;100.00;99219.36;219655;1266;98858;-83
2023/03/07 00:38:01;;;;;;;48.40;21.90;;;;;;;-3.94;100.00;99207.22;218965;1265;139576;-81
2023/03/07 00:43:01;;;;;;;56.00;24.20;;;;;;;-3.89;100.00;99198.38;219553;1266;140320;-81
2023/03/07 00:48:02;;;;;;;59.50;23.20;;;;;;;-3.91;100.00;99192.00;218995;1265;139525;-81
2023/03/07 00:53:02;;;;;;;62.60;28.40;;;;;;;-3.90;100.00;99191.20;219527;1266;139486;-80
2023/03/07 00:58:03;;;;;;;43.50;20.60;;;;;;;-3.86;100.00;99189.44;219004;1266;140058;-81
2023/03/07 01:03:03;;;;;;;48.50;20.20;;;;;;;-3.84;100.00;99181.41;219644;1266;97991;-81
2023/03/07 01:08:03;;;;;;;46.10;19.90;;;;;;;-3.82;100.00;99171.90;219138;1267;139399;-81
2023/03/07 01:13:04;;;;;;;44.20;18.80;;;;;;;-3.79;100.00;99166.75;220240;1269;139815;-81
2023/03/07 01:18:06;;;;;;;42.60;19.60;;;;;;;-3.75;100.00;99160.63;219201;1265;139972;-83
2023/03/07 01:23:06;;;;;;;46.80;19.50;;;;;;;-3.69;100.00;99162.21;219683;1267;139515;-83
2023/03/07 01:28:11;;;;;;;42.70;18.20;;;;;;;-3.63;100.00;99159.88;219219;1266;139881;-83
2023/03/07 01:33:12;;;;;;;52.80;21.60;;;;;;;-3.58;100.00;99155.68;219644;1265;139497;-83
2023/03/07 01:38:12;;;;;;;46.40;20.50;;;;;;;-3.53;100.00;99146.52;219038;1265;140250;-83
2023/03/07 01:43:31;;;;;;;51.60;19.00;;;;;;;-3.48;100.00;99145.15;219557;1270;139510;-83
2023/03/07 01:48:31;;;;;;;47.00;18.60;;;;;;;-3.42;100.00;99140.12;219075;1266;139392;-83
2023/03/07 01:53:31;;;;;;;36.70;16.10;;;;;;;-3.37;100.00;99129.74;219736;1265;139713;-83
2023/03/07 01:58:35;;;;;;;32.90;14.30;;;;;;;-3.31;100.00;99120.36;219064;1265;140252;-82
2023/03/07 02:03:47;;;;;;;37.20;14.50;;;;;;;-3.26;100.00;99115.52;220385;1266;139867;-84
2023/03/07 02:08:49;;;;;;;34.90;13.90;;;;;;;-3.22;100.00;99110.88;219250;1270;140061;-83
2023/03/07 02:13:50;;;;;;;31.90;12.60;;;;;;;-3.19;100.00;99107.38;219657;1265;139294;-83
2023/03/07 02:18:50;;;;;;;33.70;13.60;;;;;;;-3.16;100.00;99096.63;219187;1269;140001;-83
2023/03/07 02:24:30;;;;;;;34.10;15.00;;;;;;;-3.13;100.00;99087.28;219551;1265;140748;-84
2023/03/07 02:29:30;;;;;;;39.20;15.80;;;;;;;-3.11;100.00;99085.44;219120;1269;140090;-83
2023/03/07 02:34:31;;;;;;;46.80;17.40;;;;;;;-3.09;100.00;99079.33;219747;1270;139755;-84
2023/03/07 02:39:31;;;;;;;47.60;16.90;;;;;;;-3.03;100.00;99077.63;219262;1265;140261;-82
2023/03/07 02:44:32;;;;;;;37.20;15.00;;;;;;;-3.02;100.00;99069.23;219788;1270;98880;-84
2023/03/07 02:49:32;;;;;;;42.40;16.30;;;;;;;-3.00;100.00;99055.71;219342;1270;140060;-83
2023/03/07 02:54:32;;;;;;;44.00;15.60;;;;;;;-2.97;100.00;99040.71;219953;1269;139769;-83
2023/03/07 02:59:33;;;;;;;38.70;15.90;;;;;;;-2.97;100.00;99030.60;219218;1265;139787;-83
2023/03/07 03:04:34;;;;;;;39.40;15.70;;;;;;;-2.99;100.00;99022.05;219508;1265;139629;-83
2023/03/07 03:09:35;;;;;;;37.80;15.70;;;;;;;-2.97;100.00;99016.61;219154;1266;140150;-83
2023/03/07 03:14:35;;;;;;;49.70;20.10;;;;;;;-2.98;100.00;99013.98;219890;1269;97902;-83
2023/03/07 03:19:35;;;;;;;43.70;18.70;;;;;;;-2.96;100.00;99011.83;219155;1265;140156;-83
2023/03/07 03:24:41;;;;;;;46.30;18.70;;;;;;;-2.92;100.00;99003.67;219845;1269;140040;-83
2023/03/07 03:29:41;;;;;;;40.00;17.10;;;;;;;-2.91;100.00;98991.82;219275;1266;140302;-83
2023/03/07 03:34:41;;;;;;;48.90;19.40;;;;;;;-2.92;100.00;98991.76;219799;1265;139834;-83
2023/03/07 03:39:42;;;;;;;49.10;21.50;;;;;;;-2.94;100.00;98988.84;219459;1266;140217;-83
2023/03/07 03:44:42;;;;;;;47.00;20.90;;;;;;;-2.98;100.00;98985.37;220395;1269;97907;-83
2023/03/07 03:49:43;;;;;;;49.00;20.20;;;;;;;-3.00;100.00;98982.30;219148;1266;139475;-83
2023/03/07 03:54:43;;;;;;;46.20;19.80;;;;;;;-3.00;100.00;98975.08;219841;1265;139667;-83
2023/03/07 03:59:44;;;;;;;52.80;22.20;;;;;;;-2.98;100.00;98965.90;219238;1265;140916;-83
2023/03/07 04:04:44;;;;;;;46.80;18.90;;;;;;;-2.97;100.00;98957.25;219790;1266;140658;-83
2023/03/07 04:09:44;;;;;;;58.70;24.40;;;;;;;-2.95;100.00;98951.10;219253;1265;140023;-83
2023/03/07 04:14:45;;;;;;;51.10;22.30;;;;;;;-2.91;100.00;98936.58;219975;1265;97834;-83
2023/03/07 04:19:45;;;;;;;48.00;21.90;;;;;;;-2.86;100.00;98932.19;219097;1265;139975;-84
2023/03/07 04:24:45;;;;;;;50.40;20.90;;;;;;;-2.80;100.00;98918.57;219743;1266;139954;-83
2023/03/07 04:29:46;;;;;;;49.20;21.70;;;;;;;-2.74;100.00;98911.81;219172;1265;140225;-84
2023/03/07 04:34:46;;;;;;;47.60;19.90;;;;;;;-2.67;100.00;98904.92;220344;1269;139559;-83
2023/03/07 04:39:47;;;;;;;55.60;24.50;;;;;;;-2.61;100.00;98898.80;219254;1266;140482;-83
2023/03/07 04:44:49;;;;;;;48.60;21.00;;;;;;;-2.54;100.00;98896.11;219729;1270;99175;-83
2023/03/07 04:49:50;;;;;;;48.80;18.40;;;;;;;-2.49;100.00;98890.85;219198;1266;139293;-83
2023/03/07 04:54:50;;;;;;;52.20;20.80;;;;;;;-2.41;100.00;98882.90;219628;1270;139881;-83
2023/03/07 04:59:50;;;;;;;49.40;21.00;;;;;;;-2.34;100.00;98873.99;219301;1266;139621;-84
2023/03/07 05:04:51;;;;;;;44.50;18.20;;;;;;;-2.28;100.00;98865.45;219732;1266;140307;-84
2023/03/07 05:09:51;;;;;;;44.70;19.10;;;;;;;-2.22;100.00;98857.83;219269;1265;139814;-84
2023/03/07 05:14:51;;;;;;;50.70;21.60;;;;;;;-2.17;100.00;98852.84;219670;1265;307925;-83
2023/03/07 05:19:55;;;;;;;52.40;21.00;;;;;;;-2.12;100.00;98851.70;219206;1270;139750;-82
2023/03/07 05:24:55;;;;;;;49.60;22.20;;;;;;;-2.07;100.00;98843.19;220271;1266;139381;-83
2023/03/07 05:29:56;;;;;;;54.10;23.10;;;;;;;-2.01;100.00;98831.91;219265;1266;139658;-84
2023/03/07 05:34:56;;;;;;;53.80;24.30;;;;;;;-1.96;100.00;98827.55;219807;1268;139493;-84
2023/03/07 05:39:56;;;;;;;57.70;25.70;;;;;;;-1.91;100.00;98818.61;219124;1266;140531;-84
2023/03/07 05:44:57;;;;;;;51.60;23.00;;;;;;;-1.87;100.00;98811.40;219783;1265;110656;-84
2023/03/07 05:49:57;;;;;;;57.40;23.40;;;;;;;-1.82;100.00;98796.21;219285;1265;139929;-84
2023/03/07 05:54:57;;;;;;;50.10;21.80;;;;;;;-1.77;100.00;98787.84;219850;1265;139385;-84
2023/03/07 05:59:58;;;;;;;46.30;20.40;;;;;;;-1.72;100.00;98785.00;219144;1266;139778;-83
2023/03/07 06:04:58;;;;;;;48.90;20.90;;;;;;;-1.65;100.00;98773.73;220089;1270;139830;-84
2023/03/07 06:10:01;;;;;;;47.00;21.80;;;;;;;-1.59;100.00;98765.38;219355;1270;140424;-86
2023/03/07 06:15:02;;;;;;;48.00;22.20;;;;;;;-1.53;100.00;98764.89;220329;1266;98021;-84
2023/03/07 06:20:03;;;;;;;53.90;23.20;;;;;;;-1.47;100.00;98758.30;219295;1266;139523;-86
2023/03/07 06:25:07;;;;;;;52.40;23.20;;;;;;;-1.41;100.00;98750.85;219749;1266;139325;-85
2023/03/07 06:30:11;;;;;;;55.90;23.10;;;;;;;-1.34;100.00;98750.83;219306;1270;140032;-85
2023/03/07 06:35:12;;;;;;;48.60;21.10;;;;;;;-1.28;100.00;98747.15;219815;1265;139522;-85
2023/03/07 06:40:12;;;;;;;61.70;25.20;;;;;;;-1.23;100.00;98747.73;219266;1265;139692;-86
2023/03/07 06:45:12;;;;;;;52.60;24.90;;;;;;;-1.16;100.00;98734.65;219837;1270;140162;-85
2023/03/07 06:50:13;;;;;;;53.20;24.50;;;;;;;-1.08;100.00;98724.64;219489;1265;139420;-86
2023/03/07 06:55:13;;;;;;;58.00;23.80;;;;;;;-0.97;100.00;98713.15;219760;1270;141549;-85
2023/03/07 07:00:14;;;;;;;63.90;26.50;;;;;;;-0.83;100.00;98701.92;219481;1266;139587;-85
2023/03/07 07:05:15;;;;;;;54.40;23.50;;;;;;;-0.71;100.00;98697.45;220130;1265;140448;-87
2023/03/07 07:10:15;;;;;;;57.30;24.60;;;;;;;-0.61;100.00;98690.63;219531;1265;140030;-86
2023/03/07 07:15:16;;;;;;;53.80;24.00;;;;;;;-0.51;100.00;98687.04;219916;1266;139693;-87
2023/03/07 07:20:16;;;;;;;59.40;23.70;;;;;;;-0.41;100.00;98681.42;219529;1265;139676;-87
2023/03/07 07:25:17;;;;;;;61.80;25.40;;;;;;;-0.31;100.00;98670.28;219859;1265;139349;-87
2023/03/07 07:30:18;;;;;;;55.50;24.10;;;;;;;-0.22;100.00;98663.27;219224;1265;140624;-90
2023/03/07 07:35:18;;;;;;;58.50;25.50;;;;;;;-0.13;100.00;98661.69;219819;1270;139578;-89
2023/03/07 07:40:18;;;;;;;68.90;31.90;;;;;;;-0.04;100.00;98657.35;219449;1268;139850;-90
2023/03/07 07:45:23;;;;;;;58.00;24.60;;;;;;;0.06;100.00;98653.13;220075;1266;139422;-90
2023/03/07 07:50:23;;;;;;;62.80;26.70;;;;;;;0.18;100.00;98643.84;219314;1270;139696;-91
2023/03/07 07:55:24;;;;;;;60.70;27.00;;;;;;;0.32;100.00;98641.14;220151;1266;139591;-86
2023/03/07 08:00:25;;;;;;;60.20;25.50;;;;;;;0.47;100.00;98627.94;219470;1266;139406;-86
2023/03/07 08:05:25;;;;;;;57.90;24.80;;;;;;;0.62;100.00;98618.44;220091;1265;139338;-85
2023/03/07 08:10:26;;;;;;;61.90;28.70;;;;;;;0.77;100.00;98611.48;219802;1266;139914;-87
2023/03/07 08:15:26;;;;;;;62.80;30.60;;;;;;;0.92;100.00;98605.99;220301;1266;139472;-87
2023/03/07 08:20:26;;;;;;;52.30;24.50;;;;;;;1.10;100.00;98602.70;219758;1269;139524;-87
2023/03/07 08:25:28;;;;;;;56.80;25.60;;;;;;;1.26;100.00;98593.09;221677;1268;139051;-87
2023/03/07 08:30:30;;;;;;;49.60;24.90;;;;;;;1.41;100.00;98588.55;219790;1266;139358;-87
2023/03/07 08:35:30;;;;;;;54.60;26.60;;;;;;;1.55;100.00;98583.06;220401;1269;139263;-86
2023/03/07 08:40:31;;;;;;;54.80;26.00;;;;;;;1.71;100.00;98576.59;219660;1270;139699;-84
2023/03/07 08:45:31;;;;;;;47.70;24.80;;;;;;;1.86;100.00;98574.42;220664;1270;139730;-85
2023/03/07 08:50:32;;;;;;;50.20;25.10;;;;;;;2.02;100.00;98574.29;219679;1266;139902;-85
2023/03/07 08:55:35;;;;;;;50.60;25.20;;;;;;;2.14;100.00;98574.87;219940;1266;139030;-87
2023/03/07 09:00:36;;;;;;;45.10;22.80;;;;;;;2.21;100.00;98566.42;219397;1270;139860;-86
2023/03/07 09:05:37;;;;;;;50.90;23.40;;;;;;;2.23;100.00;98561.25;219924;1265;140435;-87
2023/03/07 09:10:38;;;;;;;45.40;23.40;;;;;;;2.20;100.00;98561.22;219548;1266;140192;-88
2023/03/07 09:15:39;;;;;;;50.10;24.30;;;;;;;2.13;100.00;98563.20;219967;1266;139766;-88
2023/03/07 09:20:39;;;;;;;49.10;26.10;;;;;;;2.05;100.00;98556.28;219629;1266;139590;-87
2023/03/07 09:25:40;;;;;;;50.20;25.50;;;;;;;1.94;100.00;98553.70;220132;1266;139343;-89
2023/03/07 09:30:40;;;;;;;46.70;23.80;;;;;;;1.79;100.00;98559.06;219748;1266;140064;-91
2023/03/07 09:35:41;;;;;;;49.90;26.30;;;;;;;1.65;100.00;98558.61;220461;1266;141363;-91
2023/03/07 09:40:46;;;;;;;43.40;22.80;;;;;;;1.50;100.00;98551.92;220117;1266;139193;-89
2023/03/07 09:46:18;;;;;;;48.00;23.50;;;;;;;1.40;100.00;98548.20;219882;1271;139227;-89
2023/03/07 09:51:49;;;;;;;54.10;25.40;;;;;;;1.34;100.00;98545.63;219450;1270;139190;-89
2023/03/07 09:56:58;;;;;;;50.00;25.40;;;;;;;1.30;100.00;98545.94;219253;1266;139542;-88
2023/03/07 10:02:26;;;;;;;52.30;25.70;;;;;;;1.25;100.00;98538.42;220146;1271;139309;-88
2023/03/07 10:07:27;;;;;;;54.30;26.10;;;;;;;1.23;100.00;98539.63;219411;1266;139382;-89
2023/03/07 10:12:48;;;;;;;54.30;26.50;;;;;;;1.26;100.00;98543.16;220156;1266;139724;-87
2023/03/07 10:18:20;;;;;;;65.00;30.60;;;;;;;1.31;100.00;98537.66;219670;1270;139406;-88
2023/03/07 10:23:43;;;;;;;60.10;30.00;;;;;;;1.37;100.00;98529.86;219836;1269;139747;-87
2023/03/07 10:28:47;;;;;;;57.50;28.30;;;;;;;1.44;100.00;98533.56;220265;1269;140826;-87
2023/03/07 10:33:49;;;;;;;55.30;27.70;;;;;;;1.53;100.00;98521.61;223714;1266;139154;-89
2023/03/07 10:39:03;;;;;;;53.20;25.70;;;;;;;1.62;100.00;98515.02;220059;1266;139969;-87
2023/03/07 10:44:03;;;;;;;54.10;25.70;;;;;;;1.69;100.00;98513.89;219958;1269;139087;-87
2023/03/07 10:49:12;;;;;;;50.00;25.90;;;;;;;1.78;100.00;98507.05;219538;1269;139647;-89
2023/03/07 10:54:39;;;;;;;53.40;27.40;;;;;;;1.84;100.00;98504.35;220035;1270;140012;-84
2023/03/07 10:59:46;;;;;;;47.80;26.30;;;;;;;1.94;100.00;98498.52;219468;1269;139946;-85
2023/03/07 11:04:46;;;;;;;48.60;25.20;;;;;;;2.02;100.00;98496.63;219774;1270;140266;-85
2023/03/07 11:09:47;;;;;;;53.20;27.20;;;;;;;2.08;100.00;98487.17;219048;1267;140185;-86
2023/03/07 11:15:12;;;;;;;52.80;28.20;;;;;;;2.14;100.00;98478.66;219908;1266;97933;-85
2023/03/07 11:20:20;;;;;;;50.30;25.50;;;;;;;2.22;100.00;98475.25;219661;1265;138893;-85
2023/03/07 11:25:25;;;;;;;44.40;22.20;;;;;;;2.27;100.00;98473.32;219643;1270;139838;-85
2023/03/07 11:30:50;;;;;;;50.60;27.40;;;;;;;2.33;100.00;98468.50;218973;1266;139395;-87
2023/03/07 11:36:13;;;;;;;44.90;23.50;;;;;;;2.38;100.00;98465.30;219728;1270;139698;-87
2023/03/07 11:41:23;;;;;;;46.70;24.70;;;;;;;2.44;100.00;98460.25;219305;1271;139503;-87
2023/03/07 11:46:33;;;;;;;45.70;24.90;;;;;;;2.50;100.00;98452.94;219228;1269;139724;-87
2023/03/07 11:51:43;;;;;;;45.00;24.20;;;;;;;2.56;100.00;98448.13;219958;1265;140811;-86
2023/03/07 11:56:50;;;;;;;45.60;24.00;;;;;;;2.63;100.00;98449.45;219622;1266;139801;-87
2023/03/07 12:01:54;;;;;;;44.70;24.90;;;;;;;2.71;100.00;98446.42;223720;1269;138837;-87
2023/03/07 12:07:35;;;;;;;43.30;24.10;;;;;;;2.79;100.00;98440.08;223241;1266;140163;-89
2023/03/07 12:12:49;;;;;;;41.90;23.00;;;;;;;2.88;100.00;98431.15;220470;1270;139259;-90
2023/03/07 12:18:11;;;;;;;39.10;23.20;;;;;;;2.96;100.00;98424.55;219467;1270;139896;-89
2023/03/07 12:23:38;;;;;;;40.40;23.00;;;;;;;3.05;100.00;98413.14;220230;1267;140835;-89
2023/03/07 12:28:47;;;;;;;38.90;20.90;;;;;;;3.15;100.00;98404.91;219567;1266;139811;-88
2023/03/07 12:34:28;;;;;;;41.30;23.40;;;;;;;3.25;100.00;98401.80;220189;1270;139720;-87
2023/03/07 12:39:48;;;;;;;36.20;20.30;;;;;;;3.36;100.00;98390.63;219847;1266;140128;-87
2023/03/07 12:44:58;;;;;;;36.40;19.20;;;;;;;3.46;100.00;98389.36;220389;1269;104984;-88
2023/03/07 12:50:09;;;;;;;38.50;21.30;;;;;;;3.59;100.00;98391.07;219708;1271;140135;-89
2023/03/07 12:55:26;;;;;;;33.40;17.50;;;;;;;3.71;100.00;98389.44;220047;1270;139955;-88
2023/03/07 13:00:28;;;;;;;32.40;18.50;;;;;;;3.81;100.00;98384.05;219518;1266;139399;-86
2023/03/07 13:05:31;;;;;;;37.10;19.50;;;;;;;3.88;100.00;98380.20;220308;1270;140108;-88
2023/03/07 13:10:32;;;;;;;35.50;19.00;;;;;;;3.94;100.00;98376.25;218978;1266;139234;-88
2023/03/07 13:16:00;;;;;;;30.80;18.50;;;;;;;4.01;100.00;98374.49;219645;1266;139236;-85
2023/03/07 13:21:11;;;;;;;29.70;16.70;;;;;;;4.03;100.00;98370.68;219264;1270;139102;-87
2023/03/07 13:26:12;;;;;;;32.60;19.50;;;;;;;4.06;100.00;98364.95;218962;1269;139836;-88
2023/03/07 13:31:16;;;;;;;36.90;19.00;;;;;;;4.04;100.00;98368.20;219705;1266;139428;-86
2023/03/07 13:36:37;;;;;;;36.00;20.60;;;;;;;3.99;100.00;98359.95;219077;1269;139931;-86
2023/03/07 13:41:49;;;;;;;30.50;18.30;;;;;;;3.95;100.00;98350.36;219773;1271;140518;-86
2023/03/07 13:46:51;;;;;;;37.10;20.80;;;;;;;3.90;100.00;98344.61;219122;1266;139829;-88
2023/03/07 13:52:16;;;;;;;32.20;18.90;;;;;;;3.85;100.00;98339.77;219739;1269;138165;-89
2023/03/07 13:57:19;;;;;;;35.60;21.50;;;;;;;3.81;100.00;98335.39;219736;1269;139304;-87
2023/03/07 14:02:22;;;;;;;30.40;17.60;;;;;;;3.78;100.00;98330.31;220113;1266;97944;-89
2023/03/07 14:07:35;;;;;;;30.90;18.10;;;;;;;3.76;100.00;98325.49;219676;1269;140056;-89
2023/03/07 14:12:42;;;;;;;32.60;18.30;;;;;;;3.72;100.00;98324.08;220097;1268;139226;-89
2023/03/07 14:18:23;;;;;;;33.50;20.60;;;;;;;3.72;100.00;98318.55;219511;1269;139544;-90
2023/03/07 14:23:53;;;;;;;32.90;18.50;;;;;;;3.70;100.00;98309.54;219906;1266;139212;-89
2023/03/07 14:29:14;;;;;;;30.10;17.70;;;;;;;3.69;100.00;98303.55;218926;1274;139762;-90
2023/03/07 14:34:25;;;;;;;33.60;18.80;;;;;;;3.68;100.00;98292.75;219539;1269;139431;-90
2023/03/07 14:39:40;;;;;;;33.70;19.10;;;;;;;3.67;100.00;98291.04;219011;1269;139855;-91
2023/03/07 14:44:50;;;;;;;31.80;18.90;;;;;;;3.64;100.00;98288.08;220094;1270;99260;-87
2023/03/07 14:50:06;;;;;;;31.00;17.70;;;;;;;3.63;100.00;98280.85;219079;1273;139061;-90
2023/03/07 14:55:17;;;;;;;34.30;18.70;;;;;;;3.62;100.00;98271.20;219316;1272;139416;-88
2023/03/07 15:00:36;;;;;;;31.40;19.00;;;;;;;3.62;100.00;98266.79;219043;1269;140991;-88
2023/03/07 15:05:45;;;;;;;39.50;20.80;;;;;;;3.61;100.00;98263.67;219816;1267;139154;-87
2023/03/07 15:10:51;;;;;;;39.30;22.00;;;;;;;3.62;100.00;98252.48;219458;1270;140135;-89
2023/03/07 15:15:58;;;;;;;41.10;21.80;;;;;;;3.63;100.00;98250.15;220104;1270;139688;-88
2023/03/07 15:21:01;;;;;;;49.60;24.00;;;;;;;3.64;100.00;98243.16;219705;1267;138790;-88
2023/03/07 15:26:05;;;;;;;43.00;22.30;;;;;;;3.65;100.00;98231.59;219585;1270;142528;-88
2023/03/07 15:31:07;;;;;;;33.90;19.30;;;;;;;3.67;100.00;98223.89;220189;1270;140152;-90
2023/03/07 15:36:10;;;;;;;36.30;19.60;;;;;;;3.67;100.00;98220.02;220028;1266;140325;-88
2023/03/07 15:41:32;;;;;;;31.50;18.10;;;;;;;3.67;100.00;98208.98;220283;1269;139183;-88
2023/03/07 15:46:34;;;;;;;33.10;18.00;;;;;;;3.68;100.00;98210.61;219460;1270;139799;-87
2023/03/07 15:51:36;;;;;;;34.50;19.00;;;;;;;3.70;100.00;98205.71;219943;1274;139730;-90
2023/03/07 15:56:37;;;;;;;31.50;19.00;;;;;;;3.70;100.00;98198.96;219482;1266;139599;-88
2023/03/07 16:01:37;;;;;;;32.50;18.10;;;;;;;3.71;100.00;98196.78;219746;1270;139200;-90
2023/03/07 16:06:41;;;;;;;35.00;19.20;;;;;;;3.71;100.00;98200.90;219147;1268;139833;-90
2023/03/07 16:11:43;;;;;;;33.00;18.40;;;;;;;3.74;100.00;98200.29;219885;1270;139418;-88
2023/03/07 16:16:43;;;;;;;32.30;17.20;;;;;;;3.75;100.00;98191.82;219252;1270;139392;-90
2023/03/07 16:21:44;;;;;;;26.60;15.50;;;;;;;3.77;100.00;98191.05;219666;1267;139410;-89
2023/03/07 16:26:45;;;;;;;26.20;15.40;;;;;;;3.79;100.00;98188.33;219551;1267;139178;-87
2023/03/07 16:31:46;;;;;;;25.40;12.80;;;;;;;3.79;100.00;98256.27;220364;1267;137894;-87
2023/03/07 16:36:46;;;;;;;18.90;9.70;;;;;;;3.54;100.00;98282.13;219428;1268;140111;-90
2023/03/07 16:41:48;;;;;;;7.80;3.90;;;;;;;3.24;100.00;98286.02;220269;1270;139681;-89
2023/03/07 16:46:54;;;;;;;9.60;4.20;;;;;;;2.98;100.00;98292.15;219546;1267;139412;-89
2023/03/07 16:51:55;;;;;;;11.90;5.40;;;;;;;2.70;100.00;98301.79;220274;1269;139347;-89
2023/03/07 16:56:57;;;;;;;8.80;3.80;;;;;;;2.43;100.00;98314.29;219432;1265;138863;-89
2023/03/07 17:01:57;;;;;;;9.90;4.70;;;;;;;2.21;100.00;98313.69;219662;1267;139302;-89
2023/03/07 17:06:58;;;;;;;11.50;4.60;;;;;;;2.04;100.00;98321.65;219172;1269;140523;-89
2023/03/07 17:11:58;;;;;;;9.50;4.50;;;;;;;1.88;100.00;98330.15;219353;1266;265364;-91
2023/03/07 17:16:59;;;;;;;12.40;4.30;;;;;;;1.74;100.00;98344.85;219103;1267;139807;-89
2023/03/07 17:22:01;;;;;;;11.60;4.60;;;;;;;1.62;100.00;98352.38;220150;1266;139684;-94
2023/03/07 17:27:02;;;;;;;11.40;4.50;;;;;;;1.51;100.00;98355.32;220754;1269;139295;-90
2023/03/07 17:32:03;;;;;;;8.50;3.30;;;;;;;1.41;100.00;98361.15;219887;1270;139247;-90
2023/03/07 17:37:04;;;;;;;10.80;4.00;;;;;;;1.34;100.00;98362.98;219147;1265;139493;-90
2023/03/07 17:42:05;;;;;;;11.10;3.50;;;;;;;1.30;100.00;98370.05;219855;1269;139752;-92
2023/03/07 17:47:06;;;;;;;8.30;3.40;;;;;;;1.27;100.00;98368.15;219559;1266;139667;-91
2023/03/07 17:52:07;;;;;;;7.30;3.50;;;;;;;1.23;100.00;98357.95;219689;1266;139147;-91
2023/03/07 17:57:07;;;;;;;11.20;4.50;;;;;;;1.21;100.00;98350.11;219458;1265;139024;-93
2023/03/07 18:02:12;;;;;;;8.80;3.90;;;;;;;1.19;100.00;98376.24;219857;1270;139765;-91
2023/03/07 18:07:12;;;;;;;9.20;3.80;;;;;;;1.13;100.00;98385.29;219182;1268;139494;-90
2023/03/07 18:12:14;;;;;;;9.30;4.20;;;;;;;1.11;100.00;98377.20;220650;1267;139712;-91
2023/03/07 18:17:14;;;;;;;11.80;4.50;;;;;;;1.10;100.00;98375.17;219450;1266;139223;-91
2023/03/07 18:22:14;;;;;;;20.30;8.80;;;;;;;1.11;100.00;98373.64;220254;1267;140359;-90
2023/03/07 18:27:15;;;;;;;19.30;7.40;;;;;;;1.09;100.00;98383.60;219585;1266;139779;-88
2023/03/07 18:32:15;;;;;;;21.10;10.60;;;;;;;1.10;100.00;98390.58;220096;1267;97956;-92
2023/03/07 18:37:16;;;;;;;18.70;10.40;;;;;;;1.10;100.00;98393.90;219392;1266;139730;-90
2023/03/07 18:42:17;;;;;;;13.50;7.30;;;;;;;1.11;100.00;98393.75;220110;1265;139644;-90
2023/03/07 18:47:17;;;;;;;10.30;5.00;;;;;;;1.11;100.00;98394.92;219525;1268;140401;-92
2023/03/07 18:52:18;;;;;;;17.00;8.00;;;;;;;1.11;100.00;98383.55;219800;1265;139601;-91
2023/03/07 18:57:18;;;;;;;17.30;7.70;;;;;;;1.10;100.00;98396.07;219345;1266;139807;-90
2023/03/07 19:02:19;;;;;;;13.00;6.40;;;;;;;1.06;100.00;98414.98;220701;1269;97924;-91
2023/03/07 19:07:19;;;;;;;13.20;6.30;;;;;;;1.04;100.00;98420.66;219482;1265;138972;-92
2023/03/07 19:12:20;;;;;;;13.60;7.10;;;;;;;1.01;100.00;98413.97;219853;1266;139323;-92
2023/03/07 19:17:20;;;;;;;17.40;7.60;;;;;;;1.00;100.00;98416.10;219538;1266;139342;-90
2023/03/07 19:22:22;;;;;;;18.30;7.60;;;;;;;1.00;100.00;98414.48;220048;1265;139571;-90
2023/03/07 19:27:23;;;;;;;15.20;7.50;;;;;;;1.01;100.00;98424.86;219653;1269;139431;-92
2023/03/07 19:32:23;;;;;;;57.00;19.30;;;;;;;1.00;100.00;98430.49;220197;1266;97937;-92
2023/03/07 19:37:24;;;;;;;17.90;8.20;;;;;;;1.00;100.00;98434.52;219609;1266;139424;-89
2023/03/07 19:42:24;;;;;;;19.60;7.30;;;;;;;0.98;100.00;98429.38;220078;1269;139135;-90
2023/03/07 19:47:25;;;;;;;16.40;7.10;;;;;;;0.98;100.00;98423.66;219551;1268;139350;-91
2023/03/07 19:52:26;;;;;;;15.00;6.10;;;;;;;0.98;100.00;98420.24;220624;1266;139715;-90
2023/03/07 19:57:26;;;;;;;14.20;6.00;;;;;;;0.99;100.00;98421.73;220034;1270;139078;-93
2023/03/07 20:02:28;;;;;;;15.10;6.20;;;;;;;0.99;100.00;98422.96;219902;1266;97941;-91
2023/03/07 20:07:28;;;;;;;16.70;6.40;;;;;;;0.99;100.00;98430.94;219260;1265;139549;-89
2023/03/07 20:12:32;;;;;;;16.00;6.60;;;;;;;1.00;100.00;98433.20;219831;1265;139150;-90
2023/03/07 20:17:33;;;;;;;14.40;7.30;;;;;;;0.99;100.00;98429.00;219310;1265;139695;-89
2023/03/07 20:22:34;;;;;;;16.20;7.60;;;;;;;0.98;100.00;98438.98;219916;1269;139327;-89
2023/03/07 20:27:35;;;;;;;16.40;7.50;;;;;;;0.98;100.00;98438.20;219448;1266;139957;-89
2023/03/07 20:32:36;;;;;;;17.80;8.30;;;;;;;0.97;100.00;98438.80;219878;1265;98086;-90
2023/03/07 20:37:36;;;;;;;18.20;8.50;;;;;;;0.97;100.00;98449.02;219350;1265;139063;-90
2023/03/07 20:42:36;;;;;;;19.90;9.50;;;;;;;0.97;100.00;98456.14;219854;1268;139842;-90
2023/03/07 20:47:37;;;;;;;31.70;12.50;;;;;;;0.97;100.00;98457.98;220001;1266;140270;-90
2023/03/07 20:52:37;;;;;;;17.70;8.60;;;;;;;0.96;100.00;98457.20;219954;1266;141230;-88
2023/03/07 20:57:38;;;;;;;19.40;9.30;;;;;;;0.95;100.00;98464.84;219182;1270;139580;-90
2023/03/07 21:02:39;;;;;;;16.20;8.40;;;;;;;0.95;100.00;98466.79;219984;1266;97931;-89
2023/03/07 21:07:39;;;;;;;17.10;8.70;;;;;;;0.95;100.00;98469.34;219502;1265;138937;-89
2023/03/07 21:12:39;;;;;;;16.60;8.50;;;;;;;0.96;100.00;98477.38;219929;1265;139446;-90
2023/03/07 21:17:40;;;;;;;19.80;9.00;;;;;;;0.95;100.00;98484.11;219444;1266;139765;-89
2023/03/07 21:22:41;;;;;;;19.00;9.10;;;;;;;0.95;100.00;98490.45;220033;1269;139644;-90
2023/03/07 21:27:41;;;;;;;19.40;9.50;;;;;;;0.95;100.00;98500.13;219670;1265;139997;-90
2023/03/07 21:32:41;;;;;;;19.70;10.80;;;;;;;0.96;100.00;98500.74;220101;1265;97975;-91
2023/03/07 21:37:42;;;;;;;21.40;11.80;;;;;;;0.96;100.00;98496.65;220108;1266;139990;-88
2023/03/07 21:42:42;;;;;;;22.80;11.00;;;;;;;0.97;100.00;98503.31;219985;1265;140057;-88
2023/03/07 21:47:44;;;;;;;23.20;10.40;;;;;;;0.97;100.00;98513.31;219724;1265;139925;-88
2023/03/07 21:52:44;;;;;;;18.10;10.00;;;;;;;0.98;100.00;98516.73;220027;1270;139677;-89
2023/03/07 21:57:45;;;;;;;21.80;11.10;;;;;;;0.98;100.00;98521.30;219327;1270;139224;-88
2023/03/07 22:02:45;;;;;;;19.00;10.00;;;;;;;0.99;100.00;98528.90;220108;1265;98555;-88
2023/03/07 22:07:48;;;;;;;17.40;9.10;;;;;;;0.99;100.00;98526.27;219403;1265;139124;-88
2023/03/07 22:12:49;;;;;;;17.20;9.60;;;;;;;0.99;100.00;98525.17;219866;1266;139116;-84
2023/03/07 22:17:49;;;;;;;17.30;9.70;;;;;;;0.99;100.00;98526.58;219397;1266;140285;-85
2023/03/07 22:22:50;;;;;;;17.80;9.10;;;;;;;0.98;100.00;98525.02;219834;1265;139516;-86
2023/03/07 22:27:50;;;;;;;17.30;9.60;;;;;;;0.98;100.00;98529.02;219914;1266;139753;-87
2023/03/07 22:32:50;;;;;;;14.70;8.30;;;;;;;0.97;100.00;98536.91;220077;1266;98220;-87
2023/03/07 22:37:51;;;;;;;15.20;7.60;;;;;;;0.96;100.00;98544.09;219307;1270;139666;-87
2023/03/07 22:42:52;;;;;;;18.30;7.80;;;;;;;0.96;100.00;98547.40;219781;1265;139720;-88
2023/03/07 22:47:52;;;;;;;15.40;7.90;;;;;;;0.94;100.00;98551.88;219491;1266;140079;-86